sensor_id;sensor_type;location;lat;lon;timestamp;P1;durP1;ratioP1;P2;durP2;ratioP2
49972;SDS011;65693;49.798;10.968;2023-03-12T00:01:41;4.90;;;2.50;;
49972;SDS011;65693;49.798;10.968;2023-03-12T00:04:12;4.72;;;2.60;;
49972;SDS011;65693;49.798;10.968;2023-03-12T00:06:46;5.22;;;2.65;;
49972;SDS011;65693;49.798;10.968;2023-03-12T00:09:12;3.53;;;2.30;;
49972;SDS011;65693;49.798;10.968;2023-03-12T00:11:39;4.68;;;2.60;;
49972;SDS011;65693;49.798;10.968;2023-03-12T00:14:05;4.68;;;2.45;;
49972;SDS011;65693;49.798;10.968;2023-03-12T00:16:31;4.32;;;2.40;;
49972;SDS011;65693;49.798;10.968;2023-03-12T00:18:58;4.40;;;2.25;;
49972;SDS011;65693;49.798;10.968;2023-03-12T00:21:37;4.95;;;2.63;;
49972;SDS011;65693;49.798;10.968;2023-03-12T00:24:04;4.13;;;2.45;;
49972;SDS011;65693;49.798;10.968;2023-03-12T00:26:35;4.85;;;2.55;;
49972;SDS011;65693;49.798;10.968;2023-03-12T00:29:02;3.80;;;2.42;;
49972;SDS011;65693;49.798;10.968;2023-03-12T00:31:30;4.95;;;2.92;;
49972;SDS011;65693;49.798;10.968;2023-03-12T00:33:59;5.00;;;2.65;;
49972;SDS011;65693;49.798;10.968;2023-03-12T00:36:42;4.45;;;2.40;;
49972;SDS011;65693;49.798;10.968;2023-03-12T00:39:12;6.22;;;2.75;;
49972;SDS011;65693;49.798;10.968;2023-03-12T00:41:40;4.40;;;2.30;;
49972;SDS011;65693;49.798;10.968;2023-03-12T00:44:10;4.47;;;2.60;;
49972;SDS011;65693;49.798;10.968;2023-03-12T00:46:37;5.40;;;2.50;;
49972;SDS011;65693;49.798;10.968;2023-03-12T00:49:03;5.32;;;2.80;;
49972;SDS011;65693;49.798;10.968;2023-03-12T00:51:31;4.35;;;2.60;;
49972;SDS011;65693;49.798;10.968;2023-03-12T00:53:57;5.05;;;2.72;;
49972;SDS011;65693;49.798;10.968;2023-03-12T00:56:24;4.63;;;2.95;;
49972;SDS011;65693;49.798;10.968;2023-03-12T00:58:51;4.20;;;2.70;;
49972;SDS011;65693;49.798;10.968;2023-03-12T01:01:20;5.75;;;3.03;;
49972;SDS011;65693;49.798;10.968;2023-03-12T01:03:47;5.32;;;3.10;;
49972;SDS011;65693;49.798;10.968;2023-03-12T01:06:15;4.82;;;2.75;;
49972;SDS011;65693;49.798;10.968;2023-03-12T01:08:43;4.88;;;2.42;;
49972;SDS011;65693;49.798;10.968;2023-03-12T01:11:11;5.03;;;2.92;;
49972;SDS011;65693;49.798;10.968;2023-03-12T01:13:41;5.57;;;3.03;;
49972;SDS011;65693;49.798;10.968;2023-03-12T01:16:12;5.72;;;2.92;;
49972;SDS011;65693;49.798;10.968;2023-03-12T01:18:42;4.95;;;2.97;;
49972;SDS011;65693;49.798;10.968;2023-03-12T01:21:11;4.55;;;2.70;;
49972;SDS011;65693;49.798;10.968;2023-03-12T01:23:41;5.40;;;2.88;;
49972;SDS011;65693;49.798;10.968;2023-03-12T01:26:12;5.25;;;2.67;;
49972;SDS011;65693;49.798;10.968;2023-03-12T01:28:40;6.40;;;3.03;;
49972;SDS011;65693;49.798;10.968;2023-03-12T01:31:11;5.32;;;3.05;;
49972;SDS011;65693;49.798;10.968;2023-03-12T01:33:43;4.55;;;2.50;;
49972;SDS011;65693;49.798;10.968;2023-03-12T01:36:14;4.55;;;2.83;;
49972;SDS011;65693;49.798;10.968;2023-03-12T01:38:43;5.78;;;2.80;;
49972;SDS011;65693;49.798;10.968;2023-03-12T01:41:13;5.85;;;3.13;;
49972;SDS011;65693;49.798;10.968;2023-03-12T01:43:40;5.82;;;3.25;;
49972;SDS011;65693;49.798;10.968;2023-03-12T01:48:54;4.30;;;2.67;;
49972;SDS011;65693;49.798;10.968;2023-03-12T01:51:23;4.68;;;2.85;;
49972;SDS011;65693;49.798;10.968;2023-03-12T01:53:52;5.40;;;3.45;;
49972;SDS011;65693;49.798;10.968;2023-03-12T01:56:34;5.88;;;3.17;;
49972;SDS011;65693;49.798;10.968;2023-03-12T01:59:03;6.13;;;3.17;;
49972;SDS011;65693;49.798;10.968;2023-03-12T02:01:33;5.25;;;3.28;;
49972;SDS011;65693;49.798;10.968;2023-03-12T02:04:00;5.90;;;3.03;;
49972;SDS011;65693;49.798;10.968;2023-03-12T02:06:32;5.30;;;3.20;;
49972;SDS011;65693;49.798;10.968;2023-03-12T02:09:19;5.28;;;3.35;;
49972;SDS011;65693;49.798;10.968;2023-03-12T02:11:50;5.70;;;3.28;;
49972;SDS011;65693;49.798;10.968;2023-03-12T02:14:16;4.03;;;2.40;;
49972;SDS011;65693;49.798;10.968;2023-03-12T02:16:44;5.85;;;3.45;;
49972;SDS011;65693;49.798;10.968;2023-03-12T02:19:16;5.78;;;3.08;;
49972;SDS011;65693;49.798;10.968;2023-03-12T02:21:50;4.22;;;2.85;;
49972;SDS011;65693;49.798;10.968;2023-03-12T02:24:21;6.15;;;3.05;;
49972;SDS011;65693;49.798;10.968;2023-03-12T02:26:56;4.68;;;3.10;;
49972;SDS011;65693;49.798;10.968;2023-03-12T02:29:24;4.95;;;3.10;;
49972;SDS011;65693;49.798;10.968;2023-03-12T02:31:55;4.55;;;3.05;;
49972;SDS011;65693;49.798;10.968;2023-03-12T02:34:25;4.93;;;2.72;;
49972;SDS011;65693;49.798;10.968;2023-03-12T02:36:51;5.45;;;2.88;;
49972;SDS011;65693;49.798;10.968;2023-03-12T02:39:19;4.90;;;2.92;;
49972;SDS011;65693;49.798;10.968;2023-03-12T02:41:49;6.70;;;3.35;;
49972;SDS011;65693;49.798;10.968;2023-03-12T02:44:20;4.43;;;2.85;;
49972;SDS011;65693;49.798;10.968;2023-03-12T02:46:50;5.90;;;3.03;;
49972;SDS011;65693;49.798;10.968;2023-03-12T02:49:19;4.72;;;3.20;;
49972;SDS011;65693;49.798;10.968;2023-03-12T02:51:48;5.03;;;2.72;;
49972;SDS011;65693;49.798;10.968;2023-03-12T02:54:19;4.85;;;3.00;;
49972;SDS011;65693;49.798;10.968;2023-03-12T02:56:54;5.85;;;3.30;;
49972;SDS011;65693;49.798;10.968;2023-03-12T02:59:24;4.53;;;2.63;;
49972;SDS011;65693;49.798;10.968;2023-03-12T03:01:51;5.55;;;3.10;;
49972;SDS011;65693;49.798;10.968;2023-03-12T03:04:19;4.57;;;3.10;;
49972;SDS011;65693;49.798;10.968;2023-03-12T03:06:45;5.38;;;3.00;;
49972;SDS011;65693;49.798;10.968;2023-03-12T03:09:12;5.50;;;3.00;;
49972;SDS011;65693;49.798;10.968;2023-03-12T03:11:40;5.07;;;3.40;;
49972;SDS011;65693;49.798;10.968;2023-03-12T03:14:19;6.40;;;3.60;;
49972;SDS011;65693;49.798;10.968;2023-03-12T03:16:51;5.10;;;3.17;;
49972;SDS011;65693;49.798;10.968;2023-03-12T03:19:17;5.00;;;2.80;;
49972;SDS011;65693;49.798;10.968;2023-03-12T03:21:44;5.53;;;3.17;;
49972;SDS011;65693;49.798;10.968;2023-03-12T03:24:10;6.32;;;3.63;;
49972;SDS011;65693;49.798;10.968;2023-03-12T03:26:38;6.10;;;3.30;;
49972;SDS011;65693;49.798;10.968;2023-03-12T03:29:07;5.90;;;3.45;;
49972;SDS011;65693;49.798;10.968;2023-03-12T03:31:36;5.10;;;3.13;;
49972;SDS011;65693;49.798;10.968;2023-03-12T03:34:05;5.53;;;3.28;;
49972;SDS011;65693;49.798;10.968;2023-03-12T03:36:33;4.65;;;2.97;;
49972;SDS011;65693;49.798;10.968;2023-03-12T03:39:01;5.32;;;3.20;;
49972;SDS011;65693;49.798;10.968;2023-03-12T03:41:29;5.85;;;3.17;;
49972;SDS011;65693;49.798;10.968;2023-03-12T03:43:56;6.00;;;3.33;;
49972;SDS011;65693;49.798;10.968;2023-03-12T03:46:24;7.88;;;3.20;;
49972;SDS011;65693;49.798;10.968;2023-03-12T03:48:52;4.93;;;3.13;;
49972;SDS011;65693;49.798;10.968;2023-03-12T03:51:19;6.82;;;3.63;;
49972;SDS011;65693;49.798;10.968;2023-03-12T03:53:48;6.28;;;3.65;;
49972;SDS011;65693;49.798;10.968;2023-03-12T03:56:14;5.45;;;3.03;;
49972;SDS011;65693;49.798;10.968;2023-03-12T03:58:41;6.43;;;3.13;;
49972;SDS011;65693;49.798;10.968;2023-03-12T04:01:08;5.75;;;3.42;;
49972;SDS011;65693;49.798;10.968;2023-03-12T04:03:34;4.95;;;3.38;;
49972;SDS011;65693;49.798;10.968;2023-03-12T04:06:03;4.88;;;2.95;;
49972;SDS011;65693;49.798;10.968;2023-03-12T04:08:31;5.53;;;3.35;;
49972;SDS011;65693;49.798;10.968;2023-03-12T04:10:59;5.25;;;3.00;;
49972;SDS011;65693;49.798;10.968;2023-03-12T04:13:33;5.78;;;3.42;;
49972;SDS011;65693;49.798;10.968;2023-03-12T04:16:03;5.05;;;3.28;;
49972;SDS011;65693;49.798;10.968;2023-03-12T04:18:31;6.70;;;3.47;;
49972;SDS011;65693;49.798;10.968;2023-03-12T04:21:13;5.55;;;3.28;;
49972;SDS011;65693;49.798;10.968;2023-03-12T04:23:43;5.22;;;3.50;;
49972;SDS011;65693;49.798;10.968;2023-03-12T04:26:12;6.57;;;3.33;;
49972;SDS011;65693;49.798;10.968;2023-03-12T04:28:40;4.78;;;3.22;;
49972;SDS011;65693;49.798;10.968;2023-03-12T04:31:09;4.75;;;3.28;;
49972;SDS011;65693;49.798;10.968;2023-03-12T04:33:38;4.50;;;2.83;;
49972;SDS011;65693;49.798;10.968;2023-03-12T04:36:25;5.03;;;3.40;;
49972;SDS011;65693;49.798;10.968;2023-03-12T04:39:07;5.15;;;3.30;;
49972;SDS011;65693;49.798;10.968;2023-03-12T04:41:37;4.68;;;2.97;;
49972;SDS011;65693;49.798;10.968;2023-03-12T04:44:06;6.70;;;3.30;;
49972;SDS011;65693;49.798;10.968;2023-03-12T04:46:41;5.75;;;3.45;;
49972;SDS011;65693;49.798;10.968;2023-03-12T04:49:11;6.40;;;3.10;;
49972;SDS011;65693;49.798;10.968;2023-03-12T04:51:43;6.88;;;3.47;;
49972;SDS011;65693;49.798;10.968;2023-03-12T04:54:12;5.25;;;3.35;;
49972;SDS011;65693;49.798;10.968;2023-03-12T04:56:42;5.45;;;3.10;;
49972;SDS011;65693;49.798;10.968;2023-03-12T04:59:09;5.93;;;3.22;;
49972;SDS011;65693;49.798;10.968;2023-03-12T05:01:39;4.88;;;3.25;;
49972;SDS011;65693;49.798;10.968;2023-03-12T05:04:06;5.65;;;3.10;;
49972;SDS011;65693;49.798;10.968;2023-03-12T05:06:36;5.95;;;3.20;;
49972;SDS011;65693;49.798;10.968;2023-03-12T05:09:31;5.95;;;3.47;;
49972;SDS011;65693;49.798;10.968;2023-03-12T05:12:01;5.25;;;3.00;;
49972;SDS011;65693;49.798;10.968;2023-03-12T05:14:28;6.63;;;3.40;;
49972;SDS011;65693;49.798;10.968;2023-03-12T05:16:58;5.05;;;3.08;;
49972;SDS011;65693;49.798;10.968;2023-03-12T05:19:30;6.13;;;3.65;;
49972;SDS011;65693;49.798;10.968;2023-03-12T05:22:00;6.10;;;3.20;;
49972;SDS011;65693;49.798;10.968;2023-03-12T05:24:43;5.55;;;2.80;;
49972;SDS011;65693;49.798;10.968;2023-03-12T05:27:13;5.93;;;3.42;;
49972;SDS011;65693;49.798;10.968;2023-03-12T05:29:40;4.55;;;3.30;;
49972;SDS011;65693;49.798;10.968;2023-03-12T05:32:08;5.68;;;3.30;;
49972;SDS011;65693;49.798;10.968;2023-03-12T05:34:34;6.00;;;3.30;;
49972;SDS011;65693;49.798;10.968;2023-03-12T05:37:06;5.30;;;3.33;;
49972;SDS011;65693;49.798;10.968;2023-03-12T05:39:46;5.85;;;3.35;;
49972;SDS011;65693;49.798;10.968;2023-03-12T05:42:12;5.68;;;3.28;;
49972;SDS011;65693;49.798;10.968;2023-03-12T05:44:41;6.72;;;3.90;;
49972;SDS011;65693;49.798;10.968;2023-03-12T05:47:11;5.35;;;3.38;;
49972;SDS011;65693;49.798;10.968;2023-03-12T05:49:41;4.38;;;3.00;;
49972;SDS011;65693;49.798;10.968;2023-03-12T05:52:13;5.53;;;3.25;;
49972;SDS011;65693;49.798;10.968;2023-03-12T05:54:44;6.38;;;3.35;;
49972;SDS011;65693;49.798;10.968;2023-03-12T05:57:15;4.90;;;3.25;;
49972;SDS011;65693;49.798;10.968;2023-03-12T05:59:50;6.40;;;3.35;;
49972;SDS011;65693;49.798;10.968;2023-03-12T06:02:21;5.70;;;3.70;;
49972;SDS011;65693;49.798;10.968;2023-03-12T06:04:55;7.10;;;3.95;;
49972;SDS011;65693;49.798;10.968;2023-03-12T06:07:25;5.60;;;3.55;;
49972;SDS011;65693;49.798;10.968;2023-03-12T06:10:08;5.25;;;3.55;;
49972;SDS011;65693;49.798;10.968;2023-03-12T06:12:38;5.90;;;3.15;;
49972;SDS011;65693;49.798;10.968;2023-03-12T06:15:07;5.18;;;3.20;;
49972;SDS011;65693;49.798;10.968;2023-03-12T06:17:42;5.00;;;3.50;;
49972;SDS011;65693;49.798;10.968;2023-03-12T06:20:10;5.88;;;3.10;;
49972;SDS011;65693;49.798;10.968;2023-03-12T06:22:44;5.70;;;3.47;;
49972;SDS011;65693;49.798;10.968;2023-03-12T06:25:20;7.80;;;4.15;;
49972;SDS011;65693;49.798;10.968;2023-03-12T06:27:48;5.15;;;3.13;;
49972;SDS011;65693;49.798;10.968;2023-03-12T06:30:16;4.85;;;3.20;;
49972;SDS011;65693;49.798;10.968;2023-03-12T06:32:51;6.30;;;3.58;;
49972;SDS011;65693;49.798;10.968;2023-03-12T06:35:21;4.07;;;2.92;;
49972;SDS011;65693;49.798;10.968;2023-03-12T06:37:50;6.45;;;3.60;;
49972;SDS011;65693;49.798;10.968;2023-03-12T06:40:21;8.70;;;4.03;;
49972;SDS011;65693;49.798;10.968;2023-03-12T06:42:55;7.43;;;3.60;;
49972;SDS011;65693;49.798;10.968;2023-03-12T06:45:24;6.35;;;4.00;;
49972;SDS011;65693;49.798;10.968;2023-03-12T06:47:53;5.97;;;3.35;;
49972;SDS011;65693;49.798;10.968;2023-03-12T06:50:23;7.53;;;4.95;;
49972;SDS011;65693;49.798;10.968;2023-03-12T06:52:51;7.90;;;4.38;;
49972;SDS011;65693;49.798;10.968;2023-03-12T06:55:19;7.35;;;4.32;;
49972;SDS011;65693;49.798;10.968;2023-03-12T06:57:51;6.68;;;4.55;;
49972;SDS011;65693;49.798;10.968;2023-03-12T07:00:19;8.73;;;4.32;;
49972;SDS011;65693;49.798;10.968;2023-03-12T07:02:47;6.63;;;4.18;;
49972;SDS011;65693;49.798;10.968;2023-03-12T07:05:15;6.55;;;4.32;;
49972;SDS011;65693;49.798;10.968;2023-03-12T07:07:42;7.20;;;3.90;;
49972;SDS011;65693;49.798;10.968;2023-03-12T07:10:12;5.80;;;3.70;;
49972;SDS011;65693;49.798;10.968;2023-03-12T07:12:56;12.45;;;4.60;;
49972;SDS011;65693;49.798;10.968;2023-03-12T07:15:25;7.05;;;4.45;;
49972;SDS011;65693;49.798;10.968;2023-03-12T07:17:51;5.47;;;3.60;;
49972;SDS011;65693;49.798;10.968;2023-03-12T07:20:19;8.70;;;4.50;;
49972;SDS011;65693;49.798;10.968;2023-03-12T07:22:48;6.28;;;3.85;;
49972;SDS011;65693;49.798;10.968;2023-03-12T07:25:14;6.40;;;3.78;;
49972;SDS011;65693;49.798;10.968;2023-03-12T07:27:40;5.68;;;3.75;;
49972;SDS011;65693;49.798;10.968;2023-03-12T07:30:09;8.40;;;3.88;;
49972;SDS011;65693;49.798;10.968;2023-03-12T07:32:36;8.77;;;3.90;;
49972;SDS011;65693;49.798;10.968;2023-03-12T07:35:04;7.68;;;4.22;;
49972;SDS011;65693;49.798;10.968;2023-03-12T07:37:32;7.30;;;4.10;;
49972;SDS011;65693;49.798;10.968;2023-03-12T07:39:59;6.63;;;3.88;;
49972;SDS011;65693;49.798;10.968;2023-03-12T07:42:32;5.65;;;3.47;;
49972;SDS011;65693;49.798;10.968;2023-03-12T07:45:03;8.25;;;4.10;;
49972;SDS011;65693;49.798;10.968;2023-03-12T07:47:34;8.43;;;4.40;;
49972;SDS011;65693;49.798;10.968;2023-03-12T07:50:00;6.80;;;3.70;;
49972;SDS011;65693;49.798;10.968;2023-03-12T07:52:27;6.70;;;3.85;;
49972;SDS011;65693;49.798;10.968;2023-03-12T07:54:53;6.70;;;3.88;;
49972;SDS011;65693;49.798;10.968;2023-03-12T07:57:21;6.30;;;3.97;;
49972;SDS011;65693;49.798;10.968;2023-03-12T07:59:47;6.38;;;3.90;;
49972;SDS011;65693;49.798;10.968;2023-03-12T08:02:14;7.13;;;3.25;;
49972;SDS011;65693;49.798;10.968;2023-03-12T08:04:41;6.95;;;3.80;;
49972;SDS011;65693;49.798;10.968;2023-03-12T08:07:08;6.38;;;3.70;;
49972;SDS011;65693;49.798;10.968;2023-03-12T08:09:35;6.30;;;3.90;;
49972;SDS011;65693;49.798;10.968;2023-03-12T08:12:04;5.65;;;3.67;;
49972;SDS011;65693;49.798;10.968;2023-03-12T08:14:37;7.50;;;3.63;;
49972;SDS011;65693;49.798;10.968;2023-03-12T08:17:03;6.72;;;4.05;;
49972;SDS011;65693;49.798;10.968;2023-03-12T08:19:31;5.82;;;3.30;;
49972;SDS011;65693;49.798;10.968;2023-03-12T08:22:01;5.20;;;3.15;;
49972;SDS011;65693;49.798;10.968;2023-03-12T08:24:29;5.57;;;3.35;;
49972;SDS011;65693;49.798;10.968;2023-03-12T08:26:56;6.18;;;3.72;;
49972;SDS011;65693;49.798;10.968;2023-03-12T08:29:23;6.95;;;3.85;;
49972;SDS011;65693;49.798;10.968;2023-03-12T08:31:53;5.68;;;3.60;;
49972;SDS011;65693;49.798;10.968;2023-03-12T08:34:22;5.85;;;3.63;;
49972;SDS011;65693;49.798;10.968;2023-03-12T08:36:50;5.90;;;3.63;;
49972;SDS011;65693;49.798;10.968;2023-03-12T08:39:27;6.25;;;3.38;;
49972;SDS011;65693;49.798;10.968;2023-03-12T08:41:53;6.43;;;3.83;;
49972;SDS011;65693;49.798;10.968;2023-03-12T08:44:20;5.15;;;3.20;;
49972;SDS011;65693;49.798;10.968;2023-03-12T08:46:48;5.35;;;3.53;;
49972;SDS011;65693;49.798;10.968;2023-03-12T08:49:18;5.50;;;3.30;;
49972;SDS011;65693;49.798;10.968;2023-03-12T08:51:47;5.25;;;3.17;;
49972;SDS011;65693;49.798;10.968;2023-03-12T08:54:17;6.85;;;3.90;;
49972;SDS011;65693;49.798;10.968;2023-03-12T08:57:07;5.88;;;3.40;;
49972;SDS011;65693;49.798;10.968;2023-03-12T08:59:33;6.90;;;3.67;;
49972;SDS011;65693;49.798;10.968;2023-03-12T09:02:00;8.60;;;3.70;;
49972;SDS011;65693;49.798;10.968;2023-03-12T09:04:26;5.82;;;3.47;;
49972;SDS011;65693;49.798;10.968;2023-03-12T09:06:53;6.53;;;3.20;;
49972;SDS011;65693;49.798;10.968;2023-03-12T09:09:23;5.72;;;3.33;;
49972;SDS011;65693;49.798;10.968;2023-03-12T09:14:41;5.72;;;3.22;;
49972;SDS011;65693;49.798;10.968;2023-03-12T09:17:11;7.50;;;3.40;;
49972;SDS011;65693;49.798;10.968;2023-03-12T09:19:38;6.18;;;3.25;;
49972;SDS011;65693;49.798;10.968;2023-03-12T09:22:06;6.45;;;3.30;;
49972;SDS011;65693;49.798;10.968;2023-03-12T09:24:36;5.00;;;3.35;;
49972;SDS011;65693;49.798;10.968;2023-03-12T09:27:02;4.78;;;2.97;;
49972;SDS011;65693;49.798;10.968;2023-03-12T09:29:32;5.13;;;2.85;;
49972;SDS011;65693;49.798;10.968;2023-03-12T09:32:00;5.65;;;3.20;;
49972;SDS011;65693;49.798;10.968;2023-03-12T09:34:27;4.85;;;3.10;;
49972;SDS011;65693;49.798;10.968;2023-03-12T09:36:54;7.63;;;3.95;;
49972;SDS011;65693;49.798;10.968;2023-03-12T09:39:23;8.38;;;3.47;;
49972;SDS011;65693;49.798;10.968;2023-03-12T09:41:50;7.43;;;3.05;;
49972;SDS011;65693;49.798;10.968;2023-03-12T09:44:27;5.78;;;3.53;;
49972;SDS011;65693;49.798;10.968;2023-03-12T09:47:04;5.05;;;3.05;;
49972;SDS011;65693;49.798;10.968;2023-03-12T09:49:38;8.02;;;3.55;;
49972;SDS011;65693;49.798;10.968;2023-03-12T09:52:15;6.50;;;3.28;;
49972;SDS011;65693;49.798;10.968;2023-03-12T09:54:53;5.93;;;3.08;;
49972;SDS011;65693;49.798;10.968;2023-03-12T09:57:25;7.82;;;3.40;;
49972;SDS011;65693;49.798;10.968;2023-03-12T09:59:55;5.38;;;3.47;;
49972;SDS011;65693;49.798;10.968;2023-03-12T10:02:43;6.10;;;3.17;;
49972;SDS011;65693;49.798;10.968;2023-03-12T10:05:39;5.43;;;3.00;;
49972;SDS011;65693;49.798;10.968;2023-03-12T10:08:14;5.95;;;3.15;;
49972;SDS011;65693;49.798;10.968;2023-03-12T10:10:52;5.30;;;2.40;;
49972;SDS011;65693;49.798;10.968;2023-03-12T10:13:28;5.95;;;3.08;;
49972;SDS011;65693;49.798;10.968;2023-03-12T10:16:40;7.13;;;3.05;;
49972;SDS011;65693;49.798;10.968;2023-03-12T10:19:23;5.35;;;2.67;;
49972;SDS011;65693;49.798;10.968;2023-03-12T10:22:06;5.30;;;3.15;;
49972;SDS011;65693;49.798;10.968;2023-03-12T10:24:44;7.25;;;3.17;;
49972;SDS011;65693;49.798;10.968;2023-03-12T10:27:21;5.82;;;2.70;;
49972;SDS011;65693;49.798;10.968;2023-03-12T10:29:51;4.63;;;2.72;;
49972;SDS011;65693;49.798;10.968;2023-03-12T10:32:21;9.07;;;3.33;;
49972;SDS011;65693;49.798;10.968;2023-03-12T10:34:57;4.65;;;2.80;;
49972;SDS011;65693;49.798;10.968;2023-03-12T10:37:36;5.95;;;2.92;;
49972;SDS011;65693;49.798;10.968;2023-03-12T10:40:10;6.30;;;3.03;;
49972;SDS011;65693;49.798;10.968;2023-03-12T10:42:46;5.95;;;2.80;;
49972;SDS011;65693;49.798;10.968;2023-03-12T10:45:21;6.63;;;2.78;;
49972;SDS011;65693;49.798;10.968;2023-03-12T10:48:04;5.80;;;3.17;;
49972;SDS011;65693;49.798;10.968;2023-03-12T10:50:58;5.85;;;3.05;;
49972;SDS011;65693;49.798;10.968;2023-03-12T10:53:28;6.03;;;2.53;;
49972;SDS011;65693;49.798;10.968;2023-03-12T10:55:57;4.90;;;2.78;;
49972;SDS011;65693;49.798;10.968;2023-03-12T10:58:29;4.65;;;2.60;;
49972;SDS011;65693;49.798;10.968;2023-03-12T11:00:58;6.25;;;2.95;;
49972;SDS011;65693;49.798;10.968;2023-03-12T11:03:27;5.05;;;2.47;;
49972;SDS011;65693;49.798;10.968;2023-03-12T11:05:57;7.00;;;3.53;;
49972;SDS011;65693;49.798;10.968;2023-03-12T11:08:32;5.65;;;2.65;;
49972;SDS011;65693;49.798;10.968;2023-03-12T11:11:04;5.60;;;3.00;;
49972;SDS011;65693;49.798;10.968;2023-03-12T11:13:33;6.80;;;2.85;;
49972;SDS011;65693;49.798;10.968;2023-03-12T11:16:23;5.15;;;2.60;;
49972;SDS011;65693;49.798;10.968;2023-03-12T11:18:54;4.40;;;2.65;;
49972;SDS011;65693;49.798;10.968;2023-03-12T11:21:52;4.57;;;2.65;;
49972;SDS011;65693;49.798;10.968;2023-03-12T11:24:23;5.10;;;2.78;;
49972;SDS011;65693;49.798;10.968;2023-03-12T11:26:54;4.85;;;2.60;;
49972;SDS011;65693;49.798;10.968;2023-03-12T11:29:29;4.32;;;2.15;;
49972;SDS011;65693;49.798;10.968;2023-03-12T11:32:03;5.55;;;2.53;;
49972;SDS011;65693;49.798;10.968;2023-03-12T11:34:47;4.40;;;2.38;;
49972;SDS011;65693;49.798;10.968;2023-03-12T11:37:23;3.72;;;2.45;;
49972;SDS011;65693;49.798;10.968;2023-03-12T11:40:01;5.05;;;2.75;;
49972;SDS011;65693;49.798;10.968;2023-03-12T11:42:53;4.50;;;2.55;;
49972;SDS011;65693;49.798;10.968;2023-03-12T11:45:56;3.97;;;2.25;;
49972;SDS011;65693;49.798;10.968;2023-03-12T11:48:55;4.82;;;2.13;;
49972;SDS011;65693;49.798;10.968;2023-03-12T11:51:37;3.72;;;2.13;;
49972;SDS011;65693;49.798;10.968;2023-03-12T11:54:28;5.25;;;2.47;;
49972;SDS011;65693;49.798;10.968;2023-03-12T11:57:08;4.43;;;2.20;;
49972;SDS011;65693;49.798;10.968;2023-03-12T11:59:57;4.22;;;2.55;;
49972;SDS011;65693;49.798;10.968;2023-03-12T12:02:46;6.03;;;2.55;;
49972;SDS011;65693;49.798;10.968;2023-03-12T12:05:34;3.97;;;2.15;;
49972;SDS011;65693;49.798;10.968;2023-03-12T12:08:12;4.20;;;2.28;;
49972;SDS011;65693;49.798;10.968;2023-03-12T12:10:55;5.97;;;2.47;;
49972;SDS011;65693;49.798;10.968;2023-03-12T12:13:34;5.47;;;2.60;;
49972;SDS011;65693;49.798;10.968;2023-03-12T12:16:18;4.60;;;2.78;;
49972;SDS011;65693;49.798;10.968;2023-03-12T12:19:26;4.20;;;2.03;;
49972;SDS011;65693;49.798;10.968;2023-03-12T12:22:07;3.92;;;2.45;;
49972;SDS011;65693;49.798;10.968;2023-03-12T12:24:55;4.95;;;2.40;;
49972;SDS011;65693;49.798;10.968;2023-03-12T12:27:43;4.05;;;2.42;;
49972;SDS011;65693;49.798;10.968;2023-03-12T12:30:21;4.35;;;2.45;;
49972;SDS011;65693;49.798;10.968;2023-03-12T12:33:08;4.35;;;2.33;;
49972;SDS011;65693;49.798;10.968;2023-03-12T12:35:48;4.28;;;2.40;;
49972;SDS011;65693;49.798;10.968;2023-03-12T12:38:33;3.22;;;2.10;;
49972;SDS011;65693;49.798;10.968;2023-03-12T12:41:07;4.95;;;2.45;;
49972;SDS011;65693;49.798;10.968;2023-03-12T12:43:52;4.35;;;2.25;;
49972;SDS011;65693;49.798;10.968;2023-03-12T12:46:30;3.88;;;2.25;;
49972;SDS011;65693;49.798;10.968;2023-03-12T12:49:02;4.20;;;2.42;;
49972;SDS011;65693;49.798;10.968;2023-03-12T12:51:38;3.60;;;2.22;;
49972;SDS011;65693;49.798;10.968;2023-03-12T12:54:08;4.80;;;2.53;;
49972;SDS011;65693;49.798;10.968;2023-03-12T12:56:44;3.58;;;2.05;;
49972;SDS011;65693;49.798;10.968;2023-03-12T12:59:20;5.00;;;2.45;;
49972;SDS011;65693;49.798;10.968;2023-03-12T13:02:00;3.28;;;2.13;;
49972;SDS011;65693;49.798;10.968;2023-03-12T13:04:31;4.13;;;2.38;;
49972;SDS011;65693;49.798;10.968;2023-03-12T13:07:28;3.70;;;2.13;;
49972;SDS011;65693;49.798;10.968;2023-03-12T13:10:03;3.33;;;2.20;;
49972;SDS011;65693;49.798;10.968;2023-03-12T13:12:35;4.57;;;2.47;;
49972;SDS011;65693;49.798;10.968;2023-03-12T13:15:39;4.47;;;2.80;;
49972;SDS011;65693;49.798;10.968;2023-03-12T13:18:17;7.93;;;3.33;;
49972;SDS011;65693;49.798;10.968;2023-03-12T13:21:00;7.57;;;3.28;;
49972;SDS011;65693;49.798;10.968;2023-03-12T13:23:46;8.18;;;3.60;;
49972;SDS011;65693;49.798;10.968;2023-03-12T13:26:30;7.97;;;3.83;;
49972;SDS011;65693;49.798;10.968;2023-03-12T13:29:20;6.90;;;3.25;;
49972;SDS011;65693;49.798;10.968;2023-03-12T13:32:04;7.43;;;3.55;;
49972;SDS011;65693;49.798;10.968;2023-03-12T13:35:00;7.63;;;3.80;;
49972;SDS011;65693;49.798;10.968;2023-03-12T13:40:36;8.25;;;3.90;;
49972;SDS011;65693;49.798;10.968;2023-03-12T13:43:29;7.03;;;4.32;;
49972;SDS011;65693;49.798;10.968;2023-03-12T13:49:16;7.45;;;4.20;;
49972;SDS011;65693;49.798;10.968;2023-03-12T13:52:00;9.50;;;4.20;;
49972;SDS011;65693;49.798;10.968;2023-03-12T13:54:42;6.47;;;4.15;;
49972;SDS011;65693;49.798;10.968;2023-03-12T13:57:20;7.90;;;4.43;;
49972;SDS011;65693;49.798;10.968;2023-03-12T13:59:55;6.65;;;3.60;;
49972;SDS011;65693;49.798;10.968;2023-03-12T14:02:24;6.78;;;3.88;;
49972;SDS011;65693;49.798;10.968;2023-03-12T14:05:01;7.35;;;4.20;;
49972;SDS011;65693;49.798;10.968;2023-03-12T14:10:42;6.45;;;3.35;;
49972;SDS011;65693;49.798;10.968;2023-03-12T14:13:30;6.57;;;3.47;;
49972;SDS011;65693;49.798;10.968;2023-03-12T14:16:12;5.28;;;3.08;;
49972;SDS011;65693;49.798;10.968;2023-03-12T14:18:52;6.60;;;3.60;;
49972;SDS011;65693;49.798;10.968;2023-03-12T14:21:23;6.75;;;3.63;;
49972;SDS011;65693;49.798;10.968;2023-03-12T14:23:57;6.22;;;3.33;;
49972;SDS011;65693;49.798;10.968;2023-03-12T14:26:30;6.80;;;3.72;;
49972;SDS011;65693;49.798;10.968;2023-03-12T14:29:03;6.05;;;3.47;;
49972;SDS011;65693;49.798;10.968;2023-03-12T14:31:36;4.93;;;3.17;;
49972;SDS011;65693;49.798;10.968;2023-03-12T14:34:09;7.15;;;3.88;;
49972;SDS011;65693;49.798;10.968;2023-03-12T14:36:54;6.43;;;3.03;;
49972;SDS011;65693;49.798;10.968;2023-03-12T14:39:27;6.80;;;3.53;;
49972;SDS011;65693;49.798;10.968;2023-03-12T14:42:04;6.50;;;3.30;;
49972;SDS011;65693;49.798;10.968;2023-03-12T14:44:37;8.05;;;3.17;;
49972;SDS011;65693;49.798;10.968;2023-03-12T14:47:05;5.97;;;3.30;;
49972;SDS011;65693;49.798;10.968;2023-03-12T14:49:37;5.68;;;3.10;;
49972;SDS011;65693;49.798;10.968;2023-03-12T14:52:19;6.15;;;3.17;;
49972;SDS011;65693;49.798;10.968;2023-03-12T14:54:56;8.07;;;3.35;;
49972;SDS011;65693;49.798;10.968;2023-03-12T14:57:26;4.68;;;2.95;;
49972;SDS011;65693;49.798;10.968;2023-03-12T14:59:56;6.32;;;3.40;;
49972;SDS011;65693;49.798;10.968;2023-03-12T15:02:38;5.93;;;3.35;;
49972;SDS011;65693;49.798;10.968;2023-03-12T15:05:13;5.25;;;3.13;;
49972;SDS011;65693;49.798;10.968;2023-03-12T15:07:49;5.53;;;3.13;;
49972;SDS011;65693;49.798;10.968;2023-03-12T15:10:23;4.40;;;3.00;;
49972;SDS011;65693;49.798;10.968;2023-03-12T15:12:53;5.82;;;3.17;;
49972;SDS011;65693;49.798;10.968;2023-03-12T15:15:28;5.93;;;3.17;;
49972;SDS011;65693;49.798;10.968;2023-03-12T15:18:04;6.15;;;3.05;;
49972;SDS011;65693;49.798;10.968;2023-03-12T15:20:32;5.75;;;2.95;;
49972;SDS011;65693;49.798;10.968;2023-03-12T15:23:07;4.53;;;2.85;;